createdAt,value
2023-02-24T00:04:53.019Z,11.10
2023-02-24T00:09:55.401Z,10.93
2023-02-24T00:14:58.203Z,12.10
2023-02-24T00:20:00.622Z,11.73
2023-02-24T00:25:04.008Z,9.13
2023-02-24T00:30:07.966Z,11.77
2023-02-24T00:35:10.698Z,11.63
2023-02-24T00:40:13.608Z,11.00
2023-02-24T00:45:16.883Z,12.67
2023-02-24T00:50:19.467Z,11.67
2023-02-24T00:55:23.306Z,10.30
2023-02-24T01:00:25.906Z,10.80
2023-02-24T01:05:29.293Z,12.00
2023-02-24T01:10:34.587Z,11.73
2023-02-24T01:15:37.176Z,11.90
2023-02-24T01:20:39.651Z,9.30
2023-02-24T01:25:47.857Z,11.70
2023-02-24T01:30:50.247Z,7.13
2023-02-24T01:35:55.504Z,10.43
2023-02-24T01:40:59.358Z,11.13
2023-02-24T01:46:01.783Z,10.33
2023-02-24T01:51:04.255Z,9.93
2023-02-24T01:56:07.314Z,10.77
2023-02-24T02:01:10.965Z,9.50
2023-02-24T02:06:17.855Z,10.07
2023-02-24T02:11:20.884Z,10.00
2023-02-24T02:16:53.175Z,9.97
2023-02-24T02:22:06.061Z,11.23
2023-02-24T02:27:21.267Z,9.23
2023-02-24T02:32:35.953Z,10.53
2023-02-24T02:38:03.371Z,10.70
2023-02-24T02:43:29.751Z,9.20
2023-02-24T02:48:54.723Z,9.50
2023-02-24T02:54:21.717Z,11.30
2023-02-24T02:59:28.088Z,11.23
2023-02-24T03:04:30.843Z,11.33
2023-02-24T03:09:39.816Z,10.93
2023-02-24T03:14:59.188Z,12.17
2023-02-24T03:20:29.304Z,10.17
2023-02-24T03:26:01.417Z,9.23
2023-02-24T03:31:27.841Z,12.03
2023-02-24T03:36:32.774Z,11.43
2023-02-24T03:41:42.403Z,10.50
2023-02-24T03:46:45.256Z,12.87
2023-02-24T03:52:32.502Z,12.13
2023-02-24T03:58:35.949Z,11.63
2023-02-24T04:04:16.378Z,12.10
2023-02-24T04:10:06.445Z,13.23
2023-02-24T04:15:52.777Z,11.47
2023-02-24T04:20:59.826Z,12.50
2023-02-24T04:26:03.450Z,12.90
2023-02-24T04:31:11.471Z,11.33
2023-02-24T04:36:18.847Z,11.37
2023-02-24T04:41:23.260Z,15.13
2023-02-24T04:46:26.266Z,14.43
2023-02-24T04:51:31.889Z,15.10
2023-02-24T04:56:35.657Z,13.70
2023-02-24T05:01:42.502Z,15.67
2023-02-24T05:06:45.986Z,10.43
2023-02-24T05:11:50.472Z,12.47
2023-02-24T05:16:53.057Z,15.07
2023-02-24T05:21:57.880Z,14.07
2023-02-24T05:27:01.383Z,15.50
2023-02-24T05:32:05.778Z,13.73
2023-02-24T05:37:10.913Z,14.90
2023-02-24T05:42:13.490Z,15.93
2023-02-24T05:47:19.823Z,13.03
2023-02-24T05:52:22.714Z,15.23
2023-02-24T05:57:27.544Z,16.17
2023-02-24T06:02:37.412Z,14.77
2023-02-24T06:07:40.584Z,13.70
2023-02-24T06:12:43.730Z,14.60
2023-02-24T06:17:46.150Z,15.30
2023-02-24T06:22:48.775Z,15.00
2023-02-24T06:27:55.762Z,16.10
2023-02-24T06:32:58.312Z,15.17
2023-02-24T06:38:00.803Z,15.53
2023-02-24T06:43:03.356Z,12.30
2023-02-24T06:48:07.918Z,13.07
2023-02-24T06:53:17.032Z,17.33
2023-02-24T06:58:20.903Z,16.73
2023-02-24T07:03:39.236Z,15.73
2023-02-24T07:08:44.277Z,17.13
2023-02-24T07:13:48.594Z,17.57
2023-02-24T07:18:58.105Z,14.53
2023-02-24T07:24:04.101Z,19.10
2023-02-24T07:29:06.669Z,17.67
2023-02-24T07:34:09.453Z,16.27
2023-02-24T07:39:12.146Z,16.63
2023-02-24T07:44:15.544Z,17.63
2023-02-24T07:49:21.233Z,16.47
2023-02-24T07:54:25.444Z,16.07
2023-02-24T07:59:33.958Z,18.63
2023-02-24T08:04:39.842Z,17.07
2023-02-24T08:09:45.762Z,14.43
2023-02-24T08:14:53.386Z,14.87
2023-02-24T08:20:14.743Z,15.67
2023-02-24T08:25:19.335Z,13.63
2023-02-24T08:30:25.799Z,14.93
2023-02-24T08:35:35.927Z,14.80
2023-02-24T08:40:51.851Z,13.57
2023-02-24T08:46:01.107Z,11.87
2023-02-24T08:51:28.674Z,11.63
2023-02-24T08:56:35.175Z,9.83
2023-02-24T09:02:03.663Z,9.93
2023-02-24T09:07:15.503Z,10.07
2023-02-24T09:12:25.096Z,9.23
2023-02-24T09:17:45.161Z,8.77
2023-02-24T09:23:06.191Z,8.77
2023-02-24T09:28:25.140Z,7.73
2023-02-24T09:33:39.344Z,8.60
2023-02-24T09:39:01.416Z,7.20
2023-02-24T09:44:19.908Z,6.30
2023-02-24T09:49:46.725Z,9.10
2023-02-24T09:55:11.335Z,10.40
2023-02-24T10:00:33.576Z,9.27
2023-02-24T10:05:59.070Z,9.37
2023-02-24T10:11:09.157Z,8.73
2023-02-24T10:16:23.989Z,7.73
2023-02-24T10:21:49.673Z,9.93
2023-02-24T10:27:16.883Z,8.27
2023-02-24T10:32:41.520Z,7.13
2023-02-24T10:37:44.569Z,7.70
2023-02-24T10:42:48.864Z,7.20
2023-02-24T10:47:59.916Z,8.43
2023-02-24T10:53:26.526Z,6.97
2023-02-24T10:58:56.876Z,8.90
2023-02-24T11:04:22.808Z,10.43
2023-02-24T11:09:29.501Z,10.57
2023-02-24T11:15:09.905Z,12.30
2023-02-24T11:20:51.262Z,9.90
2023-02-24T11:26:00.844Z,12.90
2023-02-24T11:31:37.108Z,12.77
2023-02-24T11:37:10.641Z,11.10
2023-02-24T11:42:22.548Z,12.60
2023-02-24T11:47:41.483Z,11.43
2023-02-24T11:52:49.551Z,9.77
2023-02-24T11:57:56.708Z,10.70
2023-02-24T12:03:58.102Z,10.47
2023-02-24T12:09:14.227Z,9.80
2023-02-24T12:14:47.806Z,10.97
2023-02-24T12:20:03.957Z,9.17
2023-02-24T12:25:11.931Z,7.67
2023-02-24T12:30:48.779Z,6.03
2023-02-24T12:37:10.336Z,6.20
2023-02-24T12:42:31.492Z,7.70
2023-02-24T12:47:43.050Z,5.47
2023-02-24T12:53:20.598Z,4.90
2023-02-24T12:58:32.397Z,4.17
2023-02-24T13:04:11.706Z,3.90
2023-02-24T13:09:46.399Z,4.63
2023-02-24T13:14:50.365Z,4.90
2023-02-24T13:19:56.131Z,5.10
2023-02-24T13:25:21.051Z,6.07
2023-02-24T13:30:39.501Z,5.27
2023-02-24T13:35:41.930Z,6.07
2023-02-24T13:40:44.116Z,5.70
2023-02-24T13:45:58.236Z,5.77
2023-02-24T13:51:52.598Z,5.73
2023-02-24T13:57:07.210Z,5.47
2023-02-24T14:02:21.102Z,5.13
2023-02-24T14:07:35.949Z,5.73
2023-02-24T14:12:42.482Z,5.90
2023-02-24T14:17:53.983Z,7.47
2023-02-24T14:22:58.973Z,9.10
2023-02-24T14:28:01.826Z,8.97
2023-02-24T14:33:07.847Z,6.60
2023-02-24T14:38:39.838Z,7.17
2023-02-24T14:43:43.415Z,7.60
2023-02-24T14:48:51.792Z,6.67
2023-02-24T14:53:59.829Z,5.77
2023-02-24T14:59:35.104Z,5.30
2023-02-24T15:04:43.877Z,5.60
2023-02-24T15:09:48.484Z,4.83
2023-02-24T15:15:00.808Z,5.37
2023-02-24T15:20:05.458Z,6.50
2023-02-24T15:25:19.239Z,5.77
2023-02-24T15:30:38.424Z,7.30
2023-02-24T15:35:50.927Z,6.77
2023-02-24T15:40:57.699Z,5.10
2023-02-24T15:46:00.445Z,5.10
2023-02-24T15:51:07.006Z,5.10
2023-02-24T15:56:09.255Z,5.27
2023-02-24T16:01:13.554Z,5.17
2023-02-24T16:06:21.402Z,5.73
2023-02-24T16:11:40.668Z,6.00
2023-02-24T16:16:43.899Z,5.50
2023-02-24T16:21:46.524Z,5.00
2023-02-24T16:26:51.635Z,6.00
2023-02-24T16:31:54.113Z,5.70
2023-02-24T16:36:56.228Z,6.23
2023-02-24T16:41:59.498Z,6.60
2023-02-24T16:47:01.843Z,6.67
2023-02-24T16:52:04.123Z,6.90
2023-02-24T16:57:06.612Z,6.57
2023-02-24T17:02:21.918Z,7.00
2023-02-24T17:07:24.309Z,7.13
2023-02-24T17:12:26.436Z,7.00
2023-02-24T17:17:28.560Z,7.47
2023-02-24T17:22:31.204Z,7.70
2023-02-24T17:27:33.849Z,6.97
2023-02-24T17:32:36.318Z,6.43
2023-02-24T17:37:38.778Z,5.70
2023-02-24T17:42:41.446Z,5.80
2023-02-24T17:47:44.349Z,5.53
2023-02-24T17:52:46.796Z,5.67
2023-02-24T17:57:49.243Z,5.50
2023-02-24T18:02:53.644Z,5.87
2023-02-24T18:07:58.685Z,5.13
2023-02-24T18:13:01.374Z,3.73
2023-02-24T18:18:04.047Z,2.60
2023-02-24T18:23:06.675Z,2.87
2023-02-24T18:28:09.188Z,2.83
2023-02-24T18:33:11.677Z,2.77
2023-02-24T18:38:14.500Z,2.60
2023-02-24T18:43:17.031Z,2.23
2023-02-24T18:48:19.678Z,2.40
2023-02-24T18:53:23.797Z,2.20
2023-02-24T18:58:26.297Z,2.87
2023-02-24T19:03:28.698Z,2.90
2023-02-24T19:08:31.617Z,4.20
2023-02-24T19:13:34.117Z,5.67
2023-02-24T19:18:37.031Z,6.13
2023-02-24T19:23:39.729Z,6.40
2023-02-24T19:28:42.393Z,6.40
2023-02-24T19:33:45.122Z,7.27
2023-02-24T19:38:47.682Z,7.37
2023-02-24T19:43:50.178Z,7.37
2023-02-24T19:48:52.575Z,7.43
2023-02-24T19:53:57.229Z,7.23
2023-02-24T19:59:01.366Z,7.83
2023-02-24T20:04:05.496Z,7.23
2023-02-24T20:09:10.574Z,7.80
2023-02-24T20:14:15.280Z,8.50
2023-02-24T20:19:18.168Z,7.77
2023-02-24T20:24:20.629Z,8.33
2023-02-24T20:29:23.156Z,7.37
2023-02-24T20:34:26.182Z,8.37
2023-02-24T20:39:28.744Z,8.40
2023-02-24T20:44:31.194Z,8.27
2023-02-24T20:49:33.890Z,7.57
2023-02-24T20:54:36.337Z,7.77
2023-02-24T20:59:43.974Z,7.83
2023-02-24T21:04:50.940Z,7.47
2023-02-24T21:09:53.458Z,7.03
2023-02-24T21:14:55.954Z,7.47
2023-02-24T21:19:58.549Z,7.53
2023-02-24T21:25:01.113Z,6.40
2023-02-24T21:30:05.332Z,3.47
2023-02-24T21:35:08.378Z,3.17
2023-02-24T21:40:11.758Z,2.73
2023-02-24T21:45:15.060Z,2.30
2023-02-24T21:50:18.205Z,2.03
2023-02-24T21:55:20.670Z,2.23
2023-02-24T22:00:24.177Z,2.27
2023-02-24T22:05:27.094Z,2.20
2023-02-24T22:10:29.575Z,2.30
2023-02-24T22:15:32.845Z,2.27
2023-02-24T22:20:35.214Z,2.00
2023-02-24T22:25:37.715Z,2.30
2023-02-24T22:30:40.155Z,2.47
2023-02-24T22:35:42.941Z,2.07
2023-02-24T22:40:45.720Z,1.90
2023-02-24T22:45:57.198Z,2.10
2023-02-24T22:51:01.650Z,2.00
2023-02-24T22:56:04.650Z,2.07
2023-02-24T23:01:15.804Z,2.00
2023-02-24T23:06:28.352Z,2.00
2023-02-24T23:11:34.927Z,2.50
2023-02-24T23:16:38.884Z,2.50
2023-02-24T23:21:45.378Z,1.93
2023-02-24T23:26:54.098Z,2.40
2023-02-24T23:31:57.386Z,2.67
2023-02-24T23:36:59.559Z,2.33
2023-02-24T23:42:01.742Z,2.50
2023-02-24T23:47:05.103Z,2.60
2023-02-24T23:52:08.448Z,2.60
2023-02-24T23:57:10.457Z,2.70
